createdAt,value
2019-04-10T00:00:59.225Z,12.17
2019-04-10T00:03:33.590Z,12.80
2019-04-10T00:06:02.596Z,12.70
2019-04-10T00:08:32.473Z,13.00
2019-04-10T00:11:02.966Z,9.87
2019-04-10T00:13:34.180Z,12.00
2019-04-10T00:16:03.825Z,11.20
2019-04-10T00:18:33.805Z,12.63
2019-04-10T00:21:03.257Z,10.93
2019-04-10T00:23:33.194Z,12.13
2019-04-10T00:26:03.606Z,12.47
2019-04-10T00:28:33.866Z,12.63
2019-04-10T00:31:03.889Z,11.20
2019-04-10T00:33:34.676Z,11.23
2019-04-10T00:36:04.103Z,10.43
2019-04-10T00:38:33.696Z,13.40
2019-04-10T00:41:03.915Z,12.80
2019-04-10T00:43:33.699Z,13.23
2019-04-10T00:46:04.077Z,11.67
2019-04-10T00:48:34.199Z,13.37
2019-04-10T00:51:03.539Z,11.47
2019-04-10T00:53:33.502Z,13.03
2019-04-10T00:56:03.971Z,13.33
2019-04-10T00:58:33.477Z,12.00
2019-04-10T01:01:03.430Z,13.33
2019-04-10T01:03:48.050Z,12.77
2019-04-10T01:06:17.066Z,13.20
2019-04-10T01:08:47.024Z,12.50
2019-04-10T01:11:17.123Z,13.00
2019-04-10T01:13:47.403Z,11.80
2019-04-10T01:16:17.817Z,12.87
2019-04-10T01:18:47.835Z,11.20
2019-04-10T01:21:18.020Z,12.90
2019-04-10T01:23:47.600Z,12.53
2019-04-10T01:26:17.047Z,11.20
2019-04-10T01:28:47.105Z,12.93
2019-04-10T01:31:17.165Z,12.63
2019-04-10T01:33:47.452Z,11.60
2019-04-10T01:36:18.533Z,12.10
2019-04-10T01:38:49.492Z,10.30
2019-04-10T01:41:19.530Z,11.63
2019-04-10T01:43:49.051Z,9.87
2019-04-10T01:46:18.428Z,10.87
2019-04-10T01:48:47.772Z,11.27
2019-04-10T01:51:17.236Z,9.77
2019-04-10T01:53:46.955Z,12.10
2019-04-10T01:56:26.999Z,11.13
2019-04-10T01:58:48.350Z,10.50
2019-04-10T02:01:21.121Z,10.90
2019-04-10T02:03:50.402Z,10.87
2019-04-10T02:06:19.666Z,10.00
2019-04-10T02:08:49.981Z,10.90
2019-04-10T02:11:19.412Z,11.07
2019-04-10T02:13:49.707Z,11.23
2019-04-10T02:16:19.093Z,8.47
2019-04-10T02:18:49.891Z,9.83
2019-04-10T02:21:19.957Z,9.00
2019-04-10T02:23:50.303Z,9.77
2019-04-10T02:26:21.303Z,11.03
2019-04-10T02:28:51.362Z,9.10
2019-04-10T02:31:21.509Z,9.70
2019-04-10T02:33:53.619Z,8.03
2019-04-10T02:36:23.616Z,9.53
2019-04-10T02:39:05.647Z,9.40
2019-04-10T02:41:25.416Z,9.83
2019-04-10T02:43:55.584Z,8.40
2019-04-10T02:46:25.110Z,9.87
2019-04-10T02:48:55.983Z,9.63
2019-04-10T02:51:27.066Z,8.10
2019-04-10T02:53:58.014Z,8.50
2019-04-10T02:56:28.530Z,6.70
2019-04-10T02:58:58.679Z,7.83
2019-04-10T03:01:28.060Z,8.27
2019-04-10T03:03:59.231Z,11.50
2019-04-10T03:06:29.402Z,9.20
2019-04-10T03:09:14.716Z,9.00
2019-04-10T03:11:31.279Z,7.87
2019-04-10T03:14:02.201Z,7.67
2019-04-10T03:16:32.314Z,9.40
2019-04-10T03:19:01.715Z,10.10
2019-04-10T03:21:31.353Z,9.30
2019-04-10T03:24:00.759Z,8.10
2019-04-10T03:26:30.139Z,8.77
2019-04-10T03:28:59.725Z,8.63
2019-04-10T03:31:31.887Z,8.10
2019-04-10T03:34:22.322Z,8.40
2019-04-10T03:36:51.776Z,7.57
2019-04-10T03:39:21.606Z,8.43
2019-04-10T03:41:51.123Z,7.43
2019-04-10T03:44:20.823Z,10.10
2019-04-10T03:46:51.022Z,6.60
2019-04-10T03:49:22.106Z,8.47
2019-04-10T03:51:52.678Z,8.47
2019-04-10T03:54:22.939Z,10.17
2019-04-10T03:56:52.347Z,7.90
2019-04-10T03:59:22.370Z,8.73
2019-04-10T04:01:51.913Z,9.40
2019-04-10T04:04:21.623Z,8.67
2019-04-10T04:06:50.982Z,8.40
2019-04-10T04:09:20.215Z,7.30
2019-04-10T04:11:50.295Z,7.40
2019-04-10T04:14:20.007Z,8.13
2019-04-10T04:16:51.238Z,9.50
2019-04-10T04:19:20.593Z,8.03
2019-04-10T04:21:50.284Z,8.53
2019-04-10T04:24:21.232Z,7.37
2019-04-10T04:26:51.246Z,7.80
2019-04-10T04:29:21.363Z,8.57
2019-04-10T04:31:51.280Z,7.73
2019-04-10T04:34:20.976Z,8.80
2019-04-10T04:36:51.410Z,8.73
2019-04-10T04:39:26.409Z,8.40
2019-04-10T04:41:52.650Z,8.57
2019-04-10T04:44:22.241Z,10.10
2019-04-10T04:46:52.637Z,7.10
2019-04-10T04:49:22.111Z,6.97
2019-04-10T04:51:52.580Z,8.77
2019-04-10T04:54:22.085Z,8.97
2019-04-10T04:56:52.486Z,7.10
2019-04-10T04:59:21.961Z,7.50
2019-04-10T05:01:52.990Z,8.60
2019-04-10T05:04:22.940Z,7.43
2019-04-10T05:06:52.276Z,8.23
2019-04-10T05:09:31.234Z,6.53
2019-04-10T05:11:53.321Z,7.80
2019-04-10T05:14:23.744Z,7.87
2019-04-10T05:16:53.919Z,8.23
2019-04-10T05:19:23.340Z,7.53
2019-04-10T05:21:52.637Z,7.00
2019-04-10T05:24:22.334Z,8.27
2019-04-10T05:26:52.289Z,7.73
2019-04-10T05:29:21.742Z,7.90
2019-04-10T05:31:51.080Z,8.40
2019-04-10T05:34:20.527Z,8.90
2019-04-10T05:36:49.881Z,8.17
2019-04-10T05:39:19.563Z,7.63
2019-04-10T05:41:50.291Z,8.00
2019-04-10T05:44:20.163Z,6.70
2019-04-10T05:46:50.221Z,7.40
2019-04-10T05:49:20.657Z,9.50
2019-04-10T05:51:53.284Z,7.50
2019-04-10T05:54:24.599Z,7.93
2019-04-10T05:56:54.672Z,7.87
2019-04-10T05:59:24.138Z,6.30
2019-04-10T06:01:54.058Z,8.20
2019-04-10T06:04:23.610Z,6.30
2019-04-10T06:06:52.938Z,8.03
2019-04-10T06:09:22.793Z,8.70
2019-04-10T06:11:53.179Z,7.70
2019-04-10T06:14:22.566Z,8.20
2019-04-10T06:16:53.088Z,6.93
2019-04-10T06:19:23.040Z,8.40
2019-04-10T06:21:53.057Z,8.67
2019-04-10T06:24:22.473Z,8.13
2019-04-10T06:26:52.092Z,7.40
2019-04-10T06:29:21.518Z,9.47
2019-04-10T06:31:52.684Z,8.53
2019-04-10T06:34:22.735Z,8.93
2019-04-10T06:36:53.479Z,8.97
2019-04-10T06:39:23.130Z,8.80
2019-04-10T06:41:52.504Z,8.13
2019-04-10T06:44:22.164Z,8.70
2019-04-10T06:46:52.813Z,10.17
2019-04-10T06:49:22.813Z,9.73
2019-04-10T06:51:53.553Z,7.63
2019-04-10T06:54:24.711Z,8.70
2019-04-10T06:56:54.563Z,9.27
2019-04-10T06:59:24.053Z,9.23
2019-04-10T07:01:56.733Z,7.80
2019-04-10T07:04:25.581Z,9.00
2019-04-10T07:07:00.776Z,9.17
2019-04-10T07:09:27.156Z,7.80
2019-04-10T07:11:59.723Z,10.10
2019-04-10T07:14:28.705Z,9.40
2019-04-10T07:17:05.052Z,10.10
2019-04-10T07:19:30.330Z,10.07
2019-04-10T07:22:01.473Z,11.70
2019-04-10T07:24:34.471Z,10.80
2019-04-10T07:27:03.523Z,8.20
2019-04-10T07:29:34.120Z,9.80
2019-04-10T07:32:07.674Z,12.30
2019-04-10T07:34:36.183Z,10.47
2019-04-10T07:37:05.823Z,10.57
2019-04-10T07:39:35.192Z,11.10
2019-04-10T07:42:04.449Z,10.80
2019-04-10T07:44:33.967Z,12.00
2019-04-10T07:47:03.398Z,9.60
2019-04-10T07:49:33.012Z,9.63
2019-04-10T07:52:03.621Z,9.67
2019-04-10T07:54:33.337Z,11.20
2019-04-10T07:57:02.669Z,10.30
2019-04-10T07:59:31.877Z,8.27
2019-04-10T08:02:02.398Z,10.17
2019-04-10T08:04:31.814Z,11.07
2019-04-10T08:07:02.998Z,11.03
2019-04-10T08:09:33.476Z,11.60
2019-04-10T08:12:03.016Z,11.97
2019-04-10T08:14:32.536Z,11.37
2019-04-10T08:17:01.791Z,10.60
2019-04-10T08:19:31.346Z,8.63
2019-04-10T08:22:03.662Z,10.77
2019-04-10T08:24:33.062Z,10.97
2019-04-10T08:27:03.301Z,11.70
2019-04-10T08:29:32.606Z,10.80
2019-04-10T08:32:03.453Z,11.50
2019-04-10T08:34:33.618Z,9.17
2019-04-10T08:37:03.829Z,11.93
2019-04-10T08:39:41.124Z,10.93
2019-04-10T08:42:06.516Z,9.83
2019-04-10T08:44:36.130Z,11.40
2019-04-10T08:47:05.457Z,11.67
2019-04-10T08:49:36.745Z,10.93
2019-04-10T08:52:06.261Z,11.70
2019-04-10T08:54:36.382Z,10.13
2019-04-10T08:57:05.806Z,10.20
2019-04-10T08:59:36.804Z,12.03
2019-04-10T09:02:06.275Z,10.93
2019-04-10T09:04:36.959Z,11.57
2019-04-10T09:07:08.303Z,11.60
2019-04-10T09:09:37.995Z,9.60
2019-04-10T09:12:07.400Z,11.23
2019-04-10T09:14:37.155Z,11.47
2019-04-10T09:17:06.977Z,11.97
2019-04-10T09:19:36.470Z,10.83
2019-04-10T09:22:05.992Z,12.30
2019-04-10T09:24:36.206Z,10.23
2019-04-10T09:27:05.768Z,10.20
2019-04-10T09:29:36.110Z,11.63
2019-04-10T09:32:06.418Z,11.60
2019-04-10T09:34:36.042Z,12.30
2019-04-10T09:37:06.008Z,10.17
2019-04-10T09:39:36.775Z,12.13
2019-04-10T09:42:06.770Z,11.30
2019-04-10T09:44:36.232Z,8.20
2019-04-10T09:47:05.626Z,9.60
2019-04-10T09:49:41.980Z,10.90
2019-04-10T09:52:27.783Z,9.27
2019-04-10T09:54:57.619Z,11.50
2019-04-10T09:57:27.026Z,10.90
2019-04-10T09:59:57.179Z,11.70
2019-04-10T10:02:27.449Z,9.87
2019-04-10T10:04:57.816Z,10.73
2019-04-10T10:07:28.368Z,11.97
2019-04-10T10:10:00.692Z,9.60
2019-04-10T10:12:29.018Z,10.43
2019-04-10T10:14:58.291Z,11.60
2019-04-10T10:17:28.529Z,9.83
2019-04-10T10:19:58.104Z,10.27
2019-04-10T10:22:27.467Z,10.33
2019-04-10T10:24:57.725Z,9.87
2019-04-10T10:27:27.184Z,9.23
2019-04-10T10:29:57.843Z,9.50
2019-04-10T10:32:28.911Z,9.90
2019-04-10T10:34:58.849Z,10.97
2019-04-10T10:37:28.674Z,9.53
2019-04-10T10:39:59.122Z,10.30
2019-04-10T10:42:29.692Z,8.70
2019-04-10T10:44:59.273Z,11.17
2019-04-10T10:47:29.311Z,12.87
2019-04-10T10:49:59.259Z,11.30
2019-04-10T10:52:28.562Z,9.93
2019-04-10T10:54:59.079Z,10.77
2019-04-10T10:57:29.301Z,12.77
2019-04-10T10:59:59.838Z,10.60
2019-04-10T11:02:29.688Z,11.10
2019-04-10T11:05:02.386Z,9.17
2019-04-10T11:07:31.319Z,10.97
2019-04-10T11:10:01.330Z,10.40
2019-04-10T11:12:30.929Z,11.10
2019-04-10T11:15:01.961Z,10.30
2019-04-10T11:17:31.597Z,10.70
2019-04-10T11:20:02.324Z,11.80
2019-04-10T11:22:33.150Z,11.50
2019-04-10T11:25:03.732Z,11.53
2019-04-10T11:27:34.343Z,13.07
2019-04-10T11:30:08.396Z,11.00
2019-04-10T11:32:38.750Z,10.47
2019-04-10T11:35:08.269Z,11.00
2019-04-10T11:37:44.408Z,9.70
2019-04-10T11:40:09.248Z,9.00
2019-04-10T11:42:39.963Z,11.27
2019-04-10T11:45:11.082Z,10.13
2019-04-10T11:47:44.978Z,10.73
2019-04-10T11:50:18.769Z,11.23
2019-04-10T11:52:53.177Z,10.03
2019-04-10T11:55:21.354Z,9.40
2019-04-10T11:57:51.590Z,11.47
2019-04-10T12:00:45.384Z,12.03
2019-04-10T12:03:10.032Z,10.93
2019-04-10T12:05:41.128Z,9.53
2019-04-10T12:13:16.438Z,9.43
2019-04-10T12:15:45.046Z,8.73
2019-04-10T12:18:14.457Z,10.13
2019-04-10T12:20:45.141Z,9.13
2019-04-10T12:23:14.676Z,10.00
2019-04-10T12:25:45.006Z,8.60
2019-04-10T12:28:14.456Z,9.87
2019-04-10T12:30:43.883Z,8.90
2019-04-10T12:33:13.715Z,9.90
2019-04-10T12:35:43.340Z,8.53
2019-04-10T12:38:13.468Z,9.47
2019-04-10T12:40:42.823Z,8.97
2019-04-10T12:43:12.685Z,9.57
2019-04-10T12:45:42.002Z,9.17
2019-04-10T12:48:12.545Z,9.80
2019-04-10T12:50:45.343Z,9.13
2019-04-10T12:53:17.082Z,8.90
2019-04-10T12:55:46.364Z,8.30
2019-04-10T12:58:17.714Z,8.33
2019-04-10T13:00:48.007Z,7.97
2019-04-10T13:03:18.736Z,8.27
2019-04-10T13:05:48.037Z,8.20
2019-04-10T13:08:22.808Z,7.90
2019-04-10T13:10:54.171Z,7.97
2019-04-10T13:13:24.265Z,7.53
2019-04-10T13:15:54.084Z,8.57
2019-04-10T13:18:24.672Z,9.97
2019-04-10T13:20:57.928Z,7.50
2019-04-10T13:23:27.291Z,9.13
2019-04-10T13:26:01.012Z,8.63
2019-04-10T13:28:27.740Z,9.80
2019-04-10T13:30:59.510Z,9.63
2019-04-10T13:33:28.968Z,9.43
2019-04-10T13:35:59.468Z,9.83
2019-04-10T13:38:33.510Z,9.47
2019-04-10T13:40:59.935Z,9.70
2019-04-10T13:43:29.740Z,8.97
2019-04-10T13:45:59.154Z,8.23
2019-04-10T13:48:29.222Z,9.13
2019-04-10T13:50:59.080Z,8.87
2019-04-10T13:53:28.469Z,9.20
2019-04-10T13:55:58.977Z,10.23
2019-04-10T13:58:29.003Z,10.00
2019-04-10T14:00:58.794Z,10.33
2019-04-10T14:03:28.301Z,10.03
2019-04-10T14:05:57.720Z,9.67
2019-04-10T14:08:41.238Z,9.80
2019-04-10T14:10:58.320Z,11.07
2019-04-10T14:13:27.703Z,10.73
2019-04-10T14:15:58.073Z,8.47
2019-04-10T14:18:27.510Z,10.27
2019-04-10T14:20:56.906Z,10.77
2019-04-10T14:23:31.345Z,10.50
2019-04-10T14:26:43.735Z,9.73
2019-04-10T14:29:14.739Z,9.70
2019-04-10T14:31:49.018Z,8.90
2019-04-10T14:34:18.852Z,8.77
2019-04-10T14:36:49.124Z,10.63
2019-04-10T14:39:21.191Z,8.10
2019-04-10T14:41:51.796Z,8.27
2019-04-10T14:44:21.211Z,9.40
2019-04-10T14:46:51.784Z,10.10
2019-04-10T14:49:22.020Z,10.53
2019-04-10T14:51:52.400Z,8.50
2019-04-10T14:54:21.870Z,10.23
2019-04-10T14:56:51.237Z,9.10
2019-04-10T14:59:21.846Z,8.87
2019-04-10T15:01:52.615Z,8.50
2019-04-10T15:04:22.447Z,9.00
2019-04-10T15:06:51.756Z,8.73
2019-04-10T15:09:25.939Z,9.40
2019-04-10T15:11:55.256Z,7.73
2019-04-10T15:14:25.870Z,8.47
2019-04-10T15:17:02.648Z,8.67
2019-04-10T15:19:26.919Z,8.83
2019-04-10T15:21:56.452Z,8.90
2019-04-10T15:24:25.915Z,9.10
2019-04-10T15:26:55.657Z,7.60
2019-04-10T15:29:25.972Z,9.63
2019-04-10T15:31:55.877Z,9.17
2019-04-10T15:34:26.106Z,9.93
2019-04-10T15:36:56.384Z,7.87
2019-04-10T15:39:33.906Z,7.33
2019-04-10T15:41:59.280Z,7.20
2019-04-10T15:44:29.856Z,7.67
2019-04-10T15:47:10.650Z,8.60
2019-04-10T15:49:31.041Z,8.90
2019-04-10T15:52:01.574Z,8.67
2019-04-10T15:54:32.079Z,8.10
2019-04-10T15:57:02.656Z,9.13
2019-04-10T15:59:32.431Z,8.83
2019-04-10T16:02:02.073Z,6.97
2019-04-10T16:04:31.735Z,7.53
2019-04-10T16:07:02.081Z,7.30
2019-04-10T16:09:44.455Z,7.97
2019-04-10T16:12:11.217Z,7.10
2019-04-10T16:14:40.724Z,6.83
2019-04-10T16:17:27.526Z,8.10
2019-04-10T16:20:07.058Z,7.37
2019-04-10T16:22:56.612Z,7.33
2019-04-10T16:25:30.174Z,6.47
2019-04-10T16:28:02.133Z,7.70
2019-04-10T16:30:32.999Z,7.03
2019-04-10T16:33:02.985Z,6.40
2019-04-10T16:35:35.442Z,6.10
2019-04-10T16:38:06.540Z,6.20
2019-04-10T16:40:36.460Z,6.87
2019-04-10T16:43:07.892Z,7.43
2019-04-10T16:45:38.523Z,5.13
2019-04-10T16:48:08.726Z,5.70
2019-04-10T16:50:42.092Z,6.23
2019-04-10T16:53:11.883Z,7.50
2019-04-10T16:55:43.085Z,6.27
2019-04-10T16:58:13.746Z,6.00
2019-04-10T17:00:43.424Z,6.07
2019-04-10T17:03:13.554Z,5.50
2019-04-10T17:05:43.844Z,5.17
2019-04-10T17:08:14.041Z,5.60
2019-04-10T17:10:44.778Z,5.03
2019-04-10T17:13:14.484Z,5.13
2019-04-10T17:15:44.190Z,5.90
2019-04-10T17:18:14.852Z,5.10
2019-04-10T17:20:44.670Z,5.80
2019-04-10T17:23:14.290Z,5.63
2019-04-10T17:25:44.449Z,6.60
2019-04-10T17:28:14.366Z,5.80
2019-04-10T17:30:44.225Z,7.40
2019-04-10T17:33:14.016Z,6.00
2019-04-10T17:35:43.554Z,6.00
2019-04-10T17:38:14.238Z,5.93
2019-04-10T17:40:50.937Z,6.20
2019-04-10T17:43:16.856Z,6.50
2019-04-10T17:45:46.921Z,6.80
2019-04-10T17:48:17.799Z,6.40
2019-04-10T17:50:48.021Z,6.07
2019-04-10T17:53:18.471Z,6.40
2019-04-10T17:55:49.563Z,6.30
2019-04-10T17:58:19.637Z,6.40
2019-04-10T18:00:52.115Z,7.70
2019-04-10T18:03:23.269Z,6.50
2019-04-10T18:05:53.175Z,6.87
2019-04-10T18:08:26.395Z,7.20
2019-04-10T18:10:55.704Z,6.40
2019-04-10T18:13:26.716Z,6.53
2019-04-10T18:15:57.103Z,6.07
2019-04-10T18:18:27.505Z,6.47
2019-04-10T18:20:58.178Z,6.87
2019-04-10T18:23:28.268Z,6.37
2019-04-10T18:25:58.310Z,6.50
2019-04-10T18:28:30.941Z,5.83
2019-04-10T18:31:00.622Z,6.43
2019-04-10T18:33:30.877Z,6.57
2019-04-10T18:36:00.695Z,5.53
2019-04-10T18:38:31.074Z,5.80
2019-04-10T18:41:05.211Z,6.03
2019-04-10T18:43:32.467Z,5.53
2019-04-10T18:46:11.480Z,5.73
2019-04-10T18:48:35.084Z,7.00
2019-04-10T18:51:06.635Z,5.90
2019-04-10T18:53:37.602Z,6.97
2019-04-10T18:56:07.282Z,6.90
2019-04-10T18:58:43.697Z,6.00
2019-04-10T19:01:41.181Z,6.67
2019-04-10T19:04:28.287Z,6.20
2019-04-10T19:06:59.364Z,6.93
2019-04-10T19:09:32.470Z,6.13
2019-04-10T19:12:04.911Z,6.83
2019-04-10T19:14:36.545Z,6.97
2019-04-10T19:17:09.136Z,5.87
2019-04-10T19:19:41.786Z,5.30
2019-04-10T19:22:13.095Z,7.87
2019-04-10T19:24:44.049Z,5.50
2019-04-10T19:27:14.211Z,6.63
2019-04-10T19:29:43.892Z,5.70
2019-04-10T19:32:22.593Z,8.43
2019-04-10T19:34:52.465Z,6.20
2019-04-10T19:37:22.881Z,6.90
2019-04-10T19:39:52.733Z,6.50
2019-04-10T19:42:22.296Z,5.87
2019-04-10T19:44:53.066Z,5.97
2019-04-10T19:47:23.042Z,5.47
2019-04-10T19:49:53.051Z,5.50
2019-04-10T19:52:22.871Z,6.83
2019-04-10T19:54:53.411Z,5.97
2019-04-10T19:57:23.708Z,6.83
2019-04-10T19:59:55.654Z,5.50
2019-04-10T20:02:25.319Z,7.00
2019-04-10T20:04:56.968Z,6.47
2019-04-10T20:07:27.113Z,6.87
2019-04-10T20:09:56.967Z,8.33
2019-04-10T20:12:28.719Z,7.20
2019-04-10T20:14:59.456Z,6.20
2019-04-10T20:17:30.252Z,8.20
2019-04-10T20:20:00.003Z,6.77
2019-04-10T20:22:30.715Z,7.07
2019-04-10T20:25:00.523Z,7.90
2019-04-10T20:27:30.243Z,7.13
2019-04-10T20:29:59.792Z,8.87
2019-04-10T20:32:30.163Z,8.07
2019-04-10T20:35:00.102Z,7.47
2019-04-10T20:37:31.014Z,6.60
2019-04-10T20:40:01.282Z,8.73
2019-04-10T20:42:32.118Z,7.53
2019-04-10T20:45:01.926Z,7.57
2019-04-10T20:47:31.560Z,9.03
2019-04-10T20:50:01.881Z,9.73
2019-04-10T20:52:32.531Z,7.57
2019-04-10T20:55:02.154Z,8.50
2019-04-10T20:57:31.945Z,6.70
2019-04-10T21:00:01.796Z,7.23
2019-04-10T21:02:31.401Z,8.30
2019-04-10T21:05:06.045Z,8.20
2019-04-10T21:07:31.952Z,7.53
2019-04-10T21:10:01.326Z,9.73
2019-04-10T21:12:30.623Z,7.40
2019-04-10T21:14:59.896Z,7.10
2019-04-10T21:17:29.940Z,9.30
2019-04-10T21:20:00.086Z,9.03
2019-04-10T21:22:30.672Z,7.70
2019-04-10T21:25:00.614Z,7.33
2019-04-10T21:27:30.050Z,7.27
2019-04-10T21:30:18.452Z,6.70
2019-04-10T21:33:09.603Z,7.70
2019-04-10T21:35:39.410Z,7.13
2019-04-10T21:38:08.915Z,7.90
2019-04-10T21:40:38.990Z,6.93
2019-04-10T21:43:08.518Z,8.70
2019-04-10T21:45:37.818Z,7.73
2019-04-10T21:48:08.274Z,6.97
2019-04-10T21:50:37.786Z,7.00
2019-04-10T21:53:08.103Z,6.10
2019-04-10T21:55:37.537Z,7.43
2019-04-10T21:58:08.064Z,6.53
2019-04-10T22:00:57.435Z,6.47
2019-04-10T22:03:27.525Z,6.80
2019-04-10T22:06:09.274Z,6.70
2019-04-10T22:08:48.025Z,6.87
2019-04-10T22:11:17.521Z,7.93
2019-04-10T22:13:47.260Z,7.50
2019-04-10T22:16:19.858Z,7.27
2019-04-10T22:18:49.808Z,7.40
2019-04-10T22:21:19.132Z,7.20
2019-04-10T22:23:49.051Z,6.07
2019-04-10T22:26:18.438Z,6.90
2019-04-10T22:28:47.725Z,6.53
2019-04-10T22:31:18.105Z,7.33
2019-04-10T22:33:48.843Z,8.00
2019-04-10T22:36:18.125Z,7.73
2019-04-10T22:38:47.352Z,7.57
2019-04-10T22:41:23.684Z,7.93
2019-04-10T22:43:49.123Z,7.90
2019-04-10T22:46:19.325Z,7.63
2019-04-10T22:48:49.971Z,6.97
2019-04-10T22:51:19.335Z,7.43
2019-04-10T22:53:48.604Z,6.27
2019-04-10T22:56:17.935Z,7.17
2019-04-10T22:58:47.131Z,8.67
2019-04-10T23:01:16.579Z,8.57
2019-04-10T23:03:45.814Z,7.67
2019-04-10T23:06:15.375Z,8.33
2019-04-10T23:08:44.764Z,7.57
2019-04-10T23:11:15.185Z,8.43
2019-04-10T23:13:44.500Z,7.53
2019-04-10T23:16:15.753Z,8.43
2019-04-10T23:18:45.656Z,8.03
2019-04-10T23:21:14.853Z,7.50
2019-04-10T23:23:45.341Z,8.47
2019-04-10T23:26:15.861Z,7.40
2019-04-10T23:28:45.285Z,8.30
2019-04-10T23:31:15.211Z,8.27
2019-04-10T23:33:44.591Z,8.40
2019-04-10T23:36:14.005Z,7.20
2019-04-10T23:38:43.796Z,8.30
2019-04-10T23:41:14.368Z,7.90
2019-04-10T23:43:44.038Z,7.23
2019-04-10T23:46:14.500Z,8.87
2019-04-10T23:48:44.675Z,7.20
2019-04-10T23:51:14.754Z,7.13
2019-04-10T23:53:44.773Z,8.13
2019-04-10T23:56:14.120Z,7.60
2019-04-10T23:58:44.436Z,8.17
